Time;durP1;ratioP1;P1;durP2;ratioP2;P2;SDS_P1;SDS_P2;PMS_P1;PMS_P2;Temp;Humidity;BMP_temperature;BMP_pressure;BME280_temperature;BME280_humidity;BME280_pressure;Samples;Min_cycle;Max_cycle;Signal;HPM_P1;HPM_P2
2023/05/06 00:00:52;;;;;;;4.80;3.30;;;15.40;98.00;;;;;;5033966;28;21022;-62
2023/05/06 00:03:20;;;;;;;6.50;3.80;;;15.30;98.00;;;;;;5034000;28;20457;-62
2023/05/06 00:05:52;;;;;;;4.13;2.70;;;15.30;98.00;;;;;;5033948;28;20462;-62
2023/05/06 00:08:23;;;;;;;5.37;3.07;;;15.30;98.00;;;;;;5033672;28;20465;-62
2023/05/06 00:10:50;;;;;;;5.73;3.27;;;15.40;98.00;;;;;;5033980;28;20459;-62
2023/05/06 00:13:17;;;;;;;7.17;3.70;;;15.60;98.00;;;;;;5034004;28;20941;-62
2023/05/06 00:15:44;;;;;;;7.93;4.23;;;15.60;98.00;;;;;;5033230;28;20485;-62
2023/05/06 00:18:14;;;;;;;7.67;3.70;;;15.60;98.00;;;;;;5033874;28;20496;-62
2023/05/06 00:20:41;;;;;;;6.37;3.20;;;15.50;98.00;;;;;;5016561;28;20454;-61
2023/05/06 00:23:11;;;;;;;6.47;3.93;;;15.50;98.00;;;;;;5016262;28;20544;-62
2023/05/06 00:25:44;;;;;;;7.33;4.13;;;15.50;98.00;;;;;;5033501;28;20952;-62
2023/05/06 00:28:11;;;;;;;7.00;3.73;;;15.50;98.00;;;;;;5033779;28;20470;-62
2023/05/06 00:30:38;;;;;;;5.90;3.23;;;15.50;98.00;;;;;;5033402;28;20978;-63
2023/05/06 00:33:05;;;;;;;9.30;4.23;;;15.50;98.00;;;;;;5033718;28;20516;-62
2023/05/06 00:35:32;;;;;;;7.60;3.90;;;15.50;98.00;;;;;;5033593;28;20479;-62
2023/05/06 00:38:08;;;;;;;5.30;3.20;;;15.60;98.00;;;;;;5033483;28;20454;-62
2023/05/06 00:40:35;;;;;;;8.37;4.10;;;15.60;98.00;;;;;;5033758;28;20549;-61
2023/05/06 00:43:05;;;;;;;5.67;3.17;;;15.70;98.00;;;;;;5033256;28;20947;-62
2023/05/06 00:45:32;;;;;;;5.60;3.30;;;15.70;98.00;;;;;;5033023;28;20466;-62
2023/05/06 00:47:59;;;;;;;8.30;3.73;;;15.60;98.00;;;;;;5033270;28;20455;-62
2023/05/06 00:50:28;;;;;;;6.27;3.67;;;15.60;98.00;;;;;;5033046;28;20968;-63
2023/05/06 00:52:58;;;;;;;5.37;3.23;;;15.60;98.00;;;;;;5032630;28;20821;-62
2023/05/06 00:55:26;;;;;;;11.27;3.90;;;15.70;98.00;;;;;;5033001;28;20548;-63
2023/05/06 00:57:53;;;;;;;5.30;3.30;;;15.60;98.00;;;;;;5031713;28;20557;-62
2023/05/06 01:00:22;;;;;;;7.70;3.27;;;15.50;98.00;;;;;;5032818;28;20450;-62
2023/05/06 01:02:56;;;;;;;5.63;3.33;;;15.50;98.00;;;;;;5032740;28;20992;-62
2023/05/06 01:05:28;;;;;;;7.53;3.70;;;15.50;98.00;;;;;;5032960;28;20455;-62
2023/05/06 01:08:06;;;;;;;7.53;4.13;;;15.60;98.00;;;;;;5032673;28;20459;-63
2023/05/06 01:10:40;;;;;;;6.40;3.70;;;15.40;98.00;;;;;;5032787;28;20519;-63
2023/05/06 01:13:15;;;;;;;7.07;3.80;;;15.40;98.00;;;;;;5032720;28;20465;-63
2023/05/06 01:15:45;;;;;;;8.27;4.20;;;15.30;98.00;;;;;;5032622;28;20496;-64
2023/05/06 01:18:17;;;;;;;6.00;3.60;;;15.20;98.00;;;;;;5032816;28;20470;-62
2023/05/06 01:20:48;;;;;;;6.20;3.60;;;15.30;98.00;;;;;;5032712;28;20545;-64
2023/05/06 01:23:18;;;;;;;7.67;3.77;;;15.20;98.00;;;;;;5032663;28;20459;-62
2023/05/06 01:25:45;;;;;;;6.30;3.50;;;15.30;98.00;;;;;;5032445;28;20450;-63
2023/05/06 01:28:12;;;;;;;11.57;4.37;;;15.40;98.00;;;;;;5032604;28;20451;-62
2023/05/06 01:30:49;;;;;;;10.00;4.47;;;15.50;98.00;;;;;;5032587;28;20465;-61
2023/05/06 01:33:25;;;;;;;7.77;3.47;;;15.40;98.00;;;;;;5032744;28;20481;-62
2023/05/06 01:36:10;;;;;;;9.17;4.30;;;15.40;98.00;;;;;;5032206;28;20493;-63
2023/05/06 01:38:46;;;;;;;8.83;4.40;;;15.40;98.00;;;;;;5032514;28;20462;-62
2023/05/06 01:41:16;;;;;;;9.33;4.03;;;15.20;98.00;;;;;;5032134;28;20520;-63
2023/05/06 01:43:45;;;;;;;7.17;3.80;;;15.10;98.00;;;;;;5032120;28;20463;-62
2023/05/06 01:46:18;;;;;;;8.30;4.20;;;15.10;98.00;;;;;;5031978;28;20688;-63
2023/05/06 01:48:46;;;;;;;6.80;3.80;;;15.10;98.00;;;;;;5032005;28;20455;-62
2023/05/06 01:51:14;;;;;;;8.50;4.67;;;15.10;98.00;;;;;;5014234;28;20485;-62
2023/05/06 01:53:42;;;;;;;7.40;4.00;;;15.10;98.00;;;;;;5031964;28;20459;-62
2023/05/06 01:56:09;;;;;;;7.53;3.97;;;15.00;98.00;;;;;;5031677;28;20548;-63
2023/05/06 01:58:37;;;;;;;8.43;4.23;;;15.00;98.00;;;;;;5031695;28;20494;-62
2023/05/06 02:01:04;;;;;;;10.37;4.63;;;15.00;98.00;;;;;;5031846;28;20478;-62
2023/05/06 02:03:31;;;;;;;10.83;4.37;;;14.90;98.00;;;;;;5031933;28;20454;-62
2023/05/06 02:05:58;;;;;;;6.33;3.80;;;14.80;98.00;;;;;;5031750;28;20458;-62
2023/05/06 02:08:25;;;;;;;6.73;3.90;;;14.70;98.00;;;;;;5031584;28;20447;-61
2023/05/06 02:10:54;;;;;;;6.20;3.30;;;14.80;98.00;;;;;;5031832;28;20463;-62
2023/05/06 02:13:21;;;;;;;5.80;3.77;;;14.80;98.00;;;;;;5031796;28;20533;-62
2023/05/06 02:15:52;;;;;;;7.00;3.83;;;14.70;98.00;;;;;;5031721;28;20881;-63
2023/05/06 02:18:19;;;;;;;5.87;3.60;;;14.50;98.00;;;;;;5032003;28;20848;-62
2023/05/06 02:20:46;;;;;;;8.23;4.20;;;14.40;98.00;;;;;;5014452;28;20890;-62
2023/05/06 02:23:13;;;;;;;7.10;3.73;;;14.40;98.00;;;;;;5031947;28;20525;-62
2023/05/06 02:25:41;;;;;;;8.57;4.17;;;14.30;98.00;;;;;;5031802;28;20462;-63
2023/05/06 02:28:09;;;;;;;6.00;3.27;;;14.30;98.00;;;;;;5031899;28;20471;-61
2023/05/06 02:30:36;;;;;;;7.07;3.77;;;14.20;98.00;;;;;;5031780;28;20465;-62
2023/05/06 02:33:03;;;;;;;6.43;3.33;;;14.30;98.00;;;;;;5031780;28;20458;-62
2023/05/06 02:35:32;;;;;;;7.03;3.67;;;14.30;98.00;;;;;;5031494;28;20462;-63
2023/05/06 02:38:01;;;;;;;6.60;3.47;;;14.30;98.00;;;;;;5031539;28;20455;-62
2023/05/06 02:40:28;;;;;;;6.17;3.60;;;14.40;98.00;;;;;;5031504;28;20458;-62
2023/05/06 02:42:55;;;;;;;7.87;4.30;;;14.40;98.00;;;;;;5031425;28;20952;-62
2023/05/06 02:45:25;;;;;;;8.17;4.30;;;14.40;98.00;;;;;;5031445;28;20457;-62
2023/05/06 02:47:52;;;;;;;6.77;4.00;;;14.30;98.00;;;;;;5013977;28;20470;-62
2023/05/06 02:50:20;;;;;;;8.10;4.03;;;14.30;98.00;;;;;;5031440;28;20466;-64
2023/05/06 02:52:47;;;;;;;9.73;4.47;;;14.40;98.00;;;;;;5031334;28;20458;-63
2023/05/06 02:55:14;;;;;;;5.90;3.80;;;14.30;98.00;;;;;;5031457;28;20458;-62
2023/05/06 02:57:41;;;;;;;9.90;4.10;;;14.20;98.00;;;;;;5031024;28;20494;-62
2023/05/06 03:00:09;;;;;;;7.83;4.50;;;14.30;98.00;;;;;;5031326;28;20455;-62
2023/05/06 03:02:38;;;;;;;12.00;4.60;;;14.30;98.00;;;;;;5031240;28;20463;-62
2023/05/06 03:05:06;;;;;;;7.13;4.03;;;14.20;98.00;;;;;;5031171;28;20455;-62
2023/05/06 03:07:35;;;;;;;7.53;4.13;;;14.10;98.00;;;;;;5031332;28;20454;-62
2023/05/06 03:10:02;;;;;;;6.50;4.27;;;14.10;98.00;;;;;;5031224;28;20469;-62
2023/05/06 03:12:29;;;;;;;7.30;3.60;;;14.10;98.00;;;;;;5031250;28;20466;-62
2023/05/06 03:14:56;;;;;;;8.23;3.90;;;14.00;98.00;;;;;;5031189;28;20481;-62
2023/05/06 03:17:23;;;;;;;6.80;3.70;;;14.00;98.00;;;;;;5031230;28;20487;-62
2023/05/06 03:19:52;;;;;;;6.83;3.40;;;14.00;98.00;;;;;;5031381;28;20458;-63
2023/05/06 03:22:19;;;;;;;6.23;3.60;;;14.10;98.00;;;;;;5034885;28;20516;-62
2023/05/06 03:24:46;;;;;;;4.73;3.40;;;14.10;98.00;;;;;;5035257;28;20995;-61
2023/05/06 03:27:13;;;;;;;7.20;3.70;;;14.10;98.00;;;;;;5034832;28;20513;-62
2023/05/06 03:29:40;;;;;;;6.03;3.40;;;14.30;98.00;;;;;;5034546;28;20458;-61
2023/05/06 03:32:07;;;;;;;7.37;3.50;;;14.30;98.00;;;;;;5034690;28;20965;-62
2023/05/06 03:34:35;;;;;;;4.57;2.77;;;14.30;98.00;;;;;;5017183;28;20589;-62
2023/05/06 03:37:03;;;;;;;5.50;3.17;;;14.30;98.00;;;;;;5034438;28;20539;-62
2023/05/06 03:39:31;;;;;;;5.30;3.20;;;14.20;98.00;;;;;;5034349;28;20458;-61
2023/05/06 03:41:58;;;;;;;6.13;3.57;;;14.20;98.00;;;;;;5034121;28;20554;-62
2023/05/06 03:44:25;;;;;;;5.50;3.27;;;14.20;98.00;;;;;;5034468;28;20457;-62
2023/05/06 03:46:55;;;;;;;6.67;3.60;;;14.20;98.00;;;;;;5034103;28;20455;-62
2023/05/06 03:49:22;;;;;;;6.50;3.33;;;14.20;98.00;;;;;;5034598;28;20459;-61
2023/05/06 03:51:49;;;;;;;5.20;2.90;;;14.20;98.00;;;;;;5034192;28;20468;-62
2023/05/06 03:54:18;;;;;;;7.03;3.27;;;14.10;98.00;;;;;;5034356;28;20458;-61
2023/05/06 03:56:45;;;;;;;7.00;3.70;;;14.10;98.00;;;;;;5033836;28;20510;-62
2023/05/06 03:59:12;;;;;;;6.13;3.40;;;14.00;98.00;;;;;;5034040;28;20468;-63
2023/05/06 04:01:39;;;;;;;6.43;3.60;;;13.90;98.00;;;;;;5033961;28;20456;-61
2023/05/06 04:04:06;;;;;;;12.73;3.93;;;13.80;98.00;;;;;;5034047;28;20944;-62
2023/05/06 04:06:33;;;;;;;6.17;3.50;;;13.70;98.00;;;;;;5016725;28;20462;-62
2023/05/06 04:09:05;;;;;;;5.57;2.97;;;13.60;98.00;;;;;;5033908;28;20532;-62
2023/05/06 04:11:35;;;;;;;5.43;3.20;;;13.60;98.00;;;;;;5016663;28;20464;-62
2023/05/06 04:14:02;;;;;;;4.97;3.10;;;13.50;98.00;;;;;;5033909;28;20466;-62
2023/05/06 04:16:30;;;;;;;5.43;3.27;;;13.60;98.00;;;;;;5033910;28;20485;-62
2023/05/06 04:18:57;;;;;;;7.00;3.47;;;13.70;98.00;;;;;;5034170;28;20463;-62
2023/05/06 04:21:24;;;;;;;4.43;2.83;;;13.60;98.00;;;;;;5033830;28;20486;-61
2023/05/06 04:23:51;;;;;;;6.40;3.13;;;13.60;98.00;;;;;;5016110;28;20845;-62
2023/05/06 04:26:19;;;;;;;5.57;3.30;;;13.60;98.00;;;;;;5016107;28;20462;-62
2023/05/06 04:28:47;;;;;;;5.90;3.10;;;13.70;98.00;;;;;;5033128;28;20462;-62
2023/05/06 04:31:15;;;;;;;8.13;3.53;;;13.80;98.00;;;;;;5033271;28;20462;-62
2023/05/06 04:33:42;;;;;;;5.37;3.57;;;13.90;98.00;;;;;;5033445;28;20446;-62
2023/05/06 04:36:09;;;;;;;6.30;3.30;;;14.00;98.00;;;;;;5033110;28;20966;-62
2023/05/06 04:38:36;;;;;;;5.27;3.10;;;14.00;98.00;;;;;;5033431;28;20930;-62
2023/05/06 04:41:04;;;;;;;7.93;3.77;;;14.00;98.00;;;;;;5033278;28;20466;-63
2023/05/06 04:43:31;;;;;;;5.30;3.03;;;14.00;98.00;;;;;;5033335;28;20454;-62
2023/05/06 04:46:00;;;;;;;5.83;3.80;;;14.00;98.00;;;;;;5033283;28;20466;-62
2023/05/06 04:48:27;;;;;;;5.10;3.13;;;13.90;98.00;;;;;;5033240;28;20497;-61
2023/05/06 04:50:54;;;;;;;5.57;3.10;;;14.10;98.00;;;;;;5033307;28;20462;-62
2023/05/06 04:53:21;;;;;;;4.50;2.80;;;14.20;98.00;;;;;;5033019;28;21038;-62
2023/05/06 04:55:48;;;;;;;6.43;3.23;;;14.10;98.00;;;;;;5033204;28;20460;-62
2023/05/06 04:58:15;;;;;;;5.13;3.27;;;14.00;98.00;;;;;;5015406;28;20995;-62
2023/05/06 05:00:42;;;;;;;11.93;3.77;;;13.90;98.00;;;;;;5033057;28;20480;-63
2023/05/06 05:03:11;;;;;;;7.87;3.50;;;14.00;98.00;;;;;;5032865;28;20458;-62
2023/05/06 05:05:40;;;;;;;6.50;3.77;;;13.90;98.00;;;;;;5033014;28;20451;-61
2023/05/06 05:08:07;;;;;;;6.57;3.50;;;14.00;98.00;;;;;;5032844;28;20462;-61
2023/05/06 05:10:34;;;;;;;5.13;3.40;;;13.90;98.00;;;;;;5032990;28;20462;-64
2023/05/06 05:13:01;;;;;;;6.10;3.10;;;14.00;98.00;;;;;;5033008;28;20451;-61
2023/05/06 05:15:28;;;;;;;5.70;3.40;;;14.00;98.00;;;;;;5015379;28;20453;-62
2023/05/06 05:17:56;;;;;;;10.00;3.70;;;14.20;98.00;;;;;;5032603;28;20490;-62
2023/05/06 05:20:24;;;;;;;5.90;3.27;;;14.30;98.00;;;;;;5032529;28;20450;-62
2023/05/06 05:22:52;;;;;;;5.37;3.53;;;14.40;98.00;;;;;;5032524;28;20521;-61
2023/05/06 05:25:20;;;;;;;6.50;3.67;;;14.50;98.00;;;;;;5032255;28;20533;-62
2023/05/06 05:27:47;;;;;;;4.67;3.03;;;14.50;98.00;;;;;;5014821;28;20481;-62
2023/05/06 05:30:14;;;;;;;6.87;3.40;;;14.60;98.00;;;;;;5032466;28;20466;-61
2023/05/06 05:32:41;;;;;;;5.97;3.50;;;14.70;98.00;;;;;;5032219;28;20459;-63
2023/05/06 05:35:09;;;;;;;6.23;3.50;;;14.70;98.00;;;;;;5032367;28;20470;-63
2023/05/06 05:37:38;;;;;;;12.13;4.13;;;14.70;98.00;;;;;;5032105;28;20525;-62
2023/05/06 05:40:08;;;;;;;5.90;3.27;;;14.90;98.00;;;;;;5032281;28;20458;-62
2023/05/06 05:42:35;;;;;;;6.80;3.30;;;14.80;98.00;;;;;;5031763;28;20454;-62
2023/05/06 05:45:03;;;;;;;5.07;3.23;;;14.70;98.00;;;;;;5014552;28;21051;-62
2023/05/06 05:47:30;;;;;;;6.17;3.47;;;14.70;98.00;;;;;;5032096;28;20458;-62
2023/05/06 05:49:57;;;;;;;6.53;3.80;;;14.80;98.00;;;;;;5032016;28;20451;-62
2023/05/06 05:52:25;;;;;;;5.80;3.03;;;15.00;98.00;;;;;;5032140;28;20458;-62
2023/05/06 05:54:53;;;;;;;5.30;3.23;;;14.80;98.00;;;;;;5032103;28;20454;-63
2023/05/06 05:57:20;;;;;;;6.70;4.10;;;14.90;98.00;;;;;;5031901;28;20498;-63
2023/05/06 05:59:47;;;;;;;6.33;3.57;;;15.00;98.00;;;;;;5032033;28;20455;-61
2023/05/06 06:02:15;;;;;;;5.50;3.23;;;15.10;98.00;;;;;;5031976;28;20458;-61
2023/05/06 06:04:42;;;;;;;7.40;3.63;;;15.10;98.00;;;;;;5014526;28;20458;-59
2023/05/06 06:07:10;;;;;;;7.37;3.70;;;15.40;98.00;;;;;;5014474;28;20469;-59
2023/05/06 06:09:37;;;;;;;8.10;4.27;;;15.50;98.00;;;;;;5032114;28;20454;-60
2023/05/06 06:12:06;;;;;;;8.00;3.70;;;15.40;98.00;;;;;;5031850;28;20463;-59
2023/05/06 06:14:33;;;;;;;9.90;4.20;;;15.60;98.00;;;;;;5031626;28;20465;-60
2023/05/06 06:17:01;;;;;;;6.37;4.57;;;15.60;98.00;;;;;;5031587;28;20827;-60
2023/05/06 06:19:30;;;;;;;8.40;4.47;;;15.70;98.00;;;;;;5031753;28;20976;-59
2023/05/06 06:21:57;;;;;;;7.20;3.60;;;15.80;98.00;;;;;;5014153;28;20447;-62
2023/05/06 06:24:24;;;;;;;7.70;4.00;;;15.80;98.00;;;;;;5031637;28;21102;-59
2023/05/06 06:26:51;;;;;;;7.77;4.17;;;15.90;98.00;;;;;;5031427;28;20458;-61
2023/05/06 06:29:20;;;;;;;7.00;3.93;;;16.00;98.00;;;;;;5031500;28;20462;-61
2023/05/06 06:31:47;;;;;;;7.90;4.20;;;16.10;98.00;;;;;;5031518;28;20454;-59
2023/05/06 06:34:15;;;;;;;8.63;4.20;;;16.10;98.00;;;;;;5031154;28;20455;-60
2023/05/06 06:36:44;;;;;;;10.30;4.67;;;;;;;;;;5030662;28;20548;-60
2023/05/06 06:39:11;;;;;;;7.80;4.20;;;16.20;98.00;;;;;;5030854;28;20542;-59
2023/05/06 06:41:38;;;;;;;7.00;3.70;;;16.20;98.00;;;;;;5030655;28;20545;-61
2023/05/06 06:44:05;;;;;;;10.07;4.50;;;16.20;98.00;;;;;;5030933;28;20454;-60
2023/05/06 06:46:35;;;;;;;7.93;4.37;;;16.10;98.00;;;;;;5030789;28;20458;-61
2023/05/06 06:49:02;;;;;;;8.00;4.40;;;16.00;98.00;;;;;;5030954;28;20458;-62
2023/05/06 06:51:30;;;;;;;11.93;4.50;;;16.00;98.00;;;;;;5030925;28;20466;-60
2023/05/06 06:53:57;;;;;;;10.80;5.00;;;16.10;98.00;;;;;;5030845;28;20451;-60
2023/05/06 06:56:24;;;;;;;8.37;4.80;;;16.30;98.00;;;;;;5033046;28;20540;-63
2023/05/06 06:58:51;;;;;;;8.67;4.40;;;16.20;98.00;;;;;;5034630;28;20494;-61
2023/05/06 07:01:19;;;;;;;7.70;4.20;;;16.30;98.00;;;;;;5033793;28;20478;-62
2023/05/06 07:03:47;;;;;;;14.00;4.57;;;16.50;98.00;;;;;;5036248;28;20458;-60
2023/05/06 07:06:14;;;;;;;8.37;4.10;;;16.50;98.00;;;;;;5036858;28;20461;-58
2023/05/06 07:08:41;;;;;;;7.23;4.10;;;16.50;98.00;;;;;;5055005;28;20552;-60
2023/05/06 07:11:09;;;;;;;8.47;4.47;;;16.50;98.00;;;;;;5055278;28;20523;-61
2023/05/06 07:13:37;;;;;;;7.27;4.17;;;;;;;;;;5054511;28;20458;-60
2023/05/06 07:16:06;;;;;;;8.00;4.17;;;;;;;;;;5054222;28;20848;-60
2023/05/06 07:18:33;;;;;;;7.47;4.10;;;16.80;98.00;;;;;;5036484;28;21137;-61
2023/05/06 07:21:02;;;;;;;7.63;4.00;;;16.60;98.00;;;;;;5036502;28;20502;-59
2023/05/06 07:23:29;;;;;;;7.00;3.80;;;16.70;98.00;;;;;;5054185;28;20466;-60
2023/05/06 07:25:57;;;;;;;6.67;4.27;;;16.80;98.00;;;;;;5054172;28;20877;-61
2023/05/06 07:28:25;;;;;;;8.13;4.10;;;16.90;98.00;;;;;;5054087;28;20454;-60
2023/05/06 07:30:52;;;;;;;8.43;4.00;;;16.80;98.00;;;;;;5053918;28;20978;-60
2023/05/06 07:33:19;;;;;;;9.60;4.17;;;16.90;98.00;;;;;;5053977;28;20457;-61
2023/05/06 07:35:46;;;;;;;6.27;3.20;;;16.90;98.00;;;;;;5053685;28;20960;-59
2023/05/06 07:38:15;;;;;;;8.00;3.90;;;16.90;98.00;;;;;;5053833;28;20489;-60
2023/05/06 07:40:42;;;;;;;9.87;4.13;;;16.90;98.00;;;;;;5053833;28;20465;-61
2023/05/06 07:43:09;;;;;;;8.37;3.90;;;17.00;98.00;;;;;;5053744;28;20454;-60
2023/05/06 07:45:36;;;;;;;7.50;4.47;;;16.90;98.00;;;;;;5053752;28;20535;-61
2023/05/06 07:48:04;;;;;;;7.13;4.23;;;17.20;98.00;;;;;;5047378;28;20462;-60
2023/05/06 07:50:31;;;;;;;10.07;4.50;;;17.40;98.00;;;;;;5035553;28;20951;-60
2023/05/06 07:52:59;;;;;;;9.10;4.20;;;17.40;98.00;;;;;;5046423;28;20466;-60
2023/05/06 07:55:28;;;;;;;8.00;3.87;;;17.30;98.00;;;;;;5053254;28;20969;-59
2023/05/06 07:57:56;;;;;;;8.50;4.40;;;;;;;;;;5053059;28;20481;-60
2023/05/06 08:00:23;;;;;;;6.27;3.80;;;17.80;98.00;;;;;;5053497;28;20831;-61
2023/05/06 08:02:50;;;;;;;5.70;3.40;;;17.90;98.00;;;;;;5049960;28;20490;-59
2023/05/06 08:05:18;;;;;;;5.50;3.73;;;17.90;98.00;;;;;;5033333;28;20960;-60
2023/05/06 08:07:45;;;;;;;5.97;3.60;;;17.80;98.00;;;;;;5048401;28;20449;-62
2023/05/06 08:10:12;;;;;;;6.83;3.50;;;17.90;98.00;;;;;;5053071;28;21038;-60
2023/05/06 08:12:41;;;;;;;6.80;3.60;;;17.80;98.00;;;;;;5052411;28;20975;-61
2023/05/06 08:15:10;;;;;;;6.60;4.17;;;17.90;98.00;;;;;;5034496;28;20957;-59
2023/05/06 08:17:37;;;;;;;6.50;4.20;;;18.10;98.00;;;;;;5051272;28;20492;-60
2023/05/06 08:20:04;;;;;;;6.90;3.90;;;18.10;98.00;;;;;;5052814;28;20458;-59
2023/05/06 08:22:32;;;;;;;9.80;4.10;;;18.10;98.00;;;;;;5052795;28;21023;-62
2023/05/06 08:24:59;;;;;;;11.60;4.47;;;18.20;98.00;;;;;;5052935;28;20454;-60
2023/05/06 08:27:26;;;;;;;6.97;4.23;;;18.30;98.00;;;;;;5053180;28;20457;-62
2023/05/06 08:29:56;;;;;;;5.33;3.70;;;18.40;98.00;;;;;;5053296;28;20481;-63
2023/05/06 08:32:23;;;;;;;7.13;3.70;;;18.40;98.00;;;;;;5053035;28;20515;-62
2023/05/06 08:34:50;;;;;;;5.27;3.30;;;18.60;98.00;;;;;;5052776;28;20511;-60
2023/05/06 08:37:17;;;;;;;7.10;3.67;;;18.80;98.00;;;;;;5035069;28;20470;-60
2023/05/06 08:39:44;;;;;;;5.90;3.60;;;19.00;98.00;;;;;;5052634;28;20867;-60
2023/05/06 08:42:12;;;;;;;5.97;3.07;;;19.10;98.00;;;;;;5052742;28;20501;-60
2023/05/06 08:44:46;;;;;;;4.80;3.07;;;19.30;98.00;;;;;;5052576;28;20454;-61
2023/05/06 08:47:15;;;;;;;5.97;3.13;;;19.40;98.00;;;;;;5035987;28;20465;-60
2023/05/06 08:49:42;;;;;;;5.57;3.50;;;19.50;98.00;;;;;;5052390;28;20453;-60
2023/05/06 08:52:09;;;;;;;5.97;3.47;;;19.60;98.00;;;;;;5052658;28;20454;-59
2023/05/06 08:54:36;;;;;;;6.87;3.80;;;19.50;98.00;;;;;;5052469;28;20462;-62
2023/05/06 08:57:05;;;;;;;5.23;3.30;;;19.40;98.00;;;;;;5052280;28;20888;-60
2023/05/06 08:59:33;;;;;;;5.93;3.53;;;19.30;98.00;;;;;;5052510;28;20517;-60
2023/05/06 09:02:01;;;;;;;6.40;3.10;;;19.10;98.00;;;;;;5052317;28;20541;-59
2023/05/06 09:04:30;;;;;;;6.00;3.47;;;19.20;98.00;;;;;;5034801;28;20536;-61
2023/05/06 09:06:59;;;;;;;7.63;3.83;;;19.20;98.00;;;;;;5051944;28;20450;-63
2023/05/06 09:09:26;;;;;;;5.50;3.40;;;19.30;98.00;;;;;;5052218;28;20454;-59
2023/05/06 09:11:56;;;;;;;3.53;3.00;;;19.50;98.00;;;;;;5052024;28;20462;-60
2023/05/06 09:14:23;;;;;;;4.93;3.40;;;19.70;98.00;;;;;;5052016;28;20450;-61
2023/05/06 09:16:53;;;;;;;4.97;2.93;;;19.80;98.00;;;;;;5051749;28;20442;-61
2023/05/06 09:19:22;;;;;;;5.67;2.90;;;19.70;98.00;;;;;;5051210;28;20482;-59
2023/05/06 09:21:51;;;;;;;2.97;2.60;;;19.90;98.00;;;;;;5051718;28;20465;-60
2023/05/06 09:24:20;;;;;;;3.23;2.53;;;20.20;98.00;;;;;;5051755;28;20512;-61
2023/05/06 09:26:47;;;;;;;4.50;2.30;;;20.40;98.00;;;;;;5034176;28;20456;-60
2023/05/06 09:29:14;;;;;;;3.07;2.23;;;20.60;98.00;;;;;;5051845;28;20862;-61
2023/05/06 09:31:43;;;;;;;4.93;3.17;;;20.70;98.00;;;;;;5051746;28;20469;-60
2023/05/06 09:34:11;;;;;;;4.63;3.00;;;20.70;98.00;;;;;;5051722;28;20862;-62
2023/05/06 09:36:39;;;;;;;4.50;2.70;;;20.60;98.00;;;;;;5033426;28;20454;-59
2023/05/06 09:39:08;;;;;;;4.53;2.20;;;20.60;98.00;;;;;;5051216;28;20482;-62
2023/05/06 09:41:35;;;;;;;3.57;2.33;;;20.80;98.00;;;;;;5051110;28;20551;-61
2023/05/06 09:44:03;;;;;;;3.80;2.43;;;20.90;98.00;;;;;;5051401;28;20454;-61
2023/05/06 09:46:31;;;;;;;5.93;2.73;;;20.80;98.00;;;;;;5051525;28;20454;-61
2023/05/06 09:49:00;;;;;;;3.47;2.50;;;20.70;98.00;;;;;;5051337;28;20454;-60
2023/05/06 09:51:27;;;;;;;3.27;2.50;;;20.50;98.00;;;;;;5051590;28;20468;-60
2023/05/06 09:53:56;;;;;;;2.90;2.20;;;20.40;98.00;;;;;;5051471;28;20478;-60
2023/05/06 09:56:25;;;;;;;2.90;2.40;;;20.50;98.00;;;;;;5051491;28;20454;-61
2023/05/06 09:58:54;;;;;;;3.17;2.17;;;20.90;98.00;;;;;;5051027;28;20747;-61
2023/05/06 10:01:21;;;;;;;2.60;2.20;;;21.10;98.00;;;;;;5051252;28;20464;-61
2023/05/06 10:03:51;;;;;;;2.80;2.13;;;21.10;98.00;;;;;;5051047;28;20615;-62
2023/05/06 10:06:22;;;;;;;3.73;2.40;;;21.20;98.00;;;;;;5050991;28;20548;-60
2023/05/06 10:08:50;;;;;;;2.90;2.00;;;21.50;98.00;;;;;;5051043;28;20452;-61
2023/05/06 10:11:19;;;;;;;3.13;2.47;;;21.70;98.00;;;;;;5050994;28;20476;-59
2023/05/06 10:13:48;;;;;;;4.73;2.80;;;21.80;98.00;;;;;;5050814;28;20943;-60
2023/05/06 10:16:16;;;;;;;3.50;2.50;;;21.90;98.00;;;;;;5050780;28;20476;-60
2023/05/06 10:18:45;;;;;;;3.60;2.57;;;22.00;98.00;;;;;;5050652;28;20532;-60
2023/05/06 10:21:17;;;;;;;2.90;2.43;;;;;;;;;;5051082;28;20571;-61
2023/05/06 10:23:49;;;;;;;3.60;2.33;;;22.40;98.00;;;;;;5050701;28;20866;-60
2023/05/06 10:26:18;;;;;;;3.20;2.50;;;22.50;98.00;;;;;;5051181;28;20454;-60
2023/05/06 10:28:51;;;;;;;4.60;2.60;;;22.50;98.00;;;;;;5050944;28;20454;-60
2023/05/06 10:31:19;;;;;;;3.20;2.57;;;22.40;98.00;;;;;;5054966;28;20511;-60
2023/05/06 10:33:48;;;;;;;3.67;2.60;;;22.60;98.00;;;;;;5054788;28;20450;-61
2023/05/06 10:36:20;;;;;;;4.23;2.80;;;22.80;98.00;;;;;;5055051;28;20480;-59
2023/05/06 10:38:53;;;;;;;3.20;2.60;;;22.90;98.00;;;;;;5054737;28;20855;-60
2023/05/06 10:41:22;;;;;;;3.90;2.90;;;23.10;98.00;;;;;;5054909;28;20458;-60
2023/05/06 10:43:55;;;;;;;4.20;2.80;;;23.30;98.00;;;;;;5054709;28;20454;-61
2023/05/06 10:46:23;;;;;;;3.30;2.57;;;23.40;98.00;;;;;;5054929;28;20461;-58
2023/05/06 10:49:19;;;;;;;4.00;2.83;;;23.40;98.00;;;;;;5055000;28;20454;-60
2023/05/06 10:51:46;;;;;;;3.60;2.40;;;23.40;98.00;;;;;;5052977;28;20454;-59
2023/05/06 10:54:23;;;;;;;3.77;2.50;;;23.50;98.00;;;;;;5054737;28;20454;-60
2023/05/06 10:57:09;;;;;;;4.37;2.60;;;23.60;98.00;;;;;;5054460;28;20500;-60
2023/05/06 10:59:45;;;;;;;3.70;2.40;;;23.80;96.50;;;;;;5054469;28;20489;-60
2023/05/06 11:02:13;;;;;;;3.60;2.67;;;23.70;94.10;;;;;;5054247;28;21130;-59
2023/05/06 11:04:40;;;;;;;3.57;2.40;;;23.60;96.70;;;;;;5054395;28;20948;-60
2023/05/06 11:07:09;;;;;;;2.97;2.37;;;23.80;98.00;;;;;;5054410;28;20461;-61
2023/05/06 11:09:57;;;;;;;2.93;2.40;;;24.00;95.50;;;;;;5054422;28;20876;-60
2023/05/06 11:12:44;;;;;;;3.30;2.40;;;24.20;96.80;;;;;;5054131;28;20472;-60
2023/05/06 11:15:26;;;;;;;3.03;2.30;;;24.40;94.50;;;;;;5054126;28;20460;-61
2023/05/06 11:17:54;;;;;;;4.93;2.67;;;24.40;94.00;;;;;;5053963;28;20964;-60
2023/05/06 11:20:23;;;;;;;3.77;2.67;;;24.60;91.40;;;;;;5054200;28;20572;-60
2023/05/06 11:22:50;;;;;;;4.30;2.40;;;24.30;90.20;;;;;;5054032;28;20462;-60
2023/05/06 11:25:41;;;;;;;2.80;2.37;;;24.30;91.70;;;;;;5053968;28;20472;-62
2023/05/06 11:28:10;;;;;;;2.30;2.00;;;24.10;91.40;;;;;;5054003;28;20956;-63
2023/05/06 11:30:41;;;;;;;3.20;2.53;;;23.60;91.90;;;;;;5053905;28;20453;-61
2023/05/06 11:33:09;;;;;;;4.80;2.50;;;23.40;94.50;;;;;;5054035;28;20873;-60
2023/05/06 11:35:36;;;;;;;4.03;2.73;;;23.40;96.00;;;;;;5053795;28;20457;-60
2023/05/06 11:38:04;;;;;;;4.20;2.87;;;24.00;98.00;;;;;;5053778;28;20453;-61
2023/05/06 11:40:32;;;;;;;3.10;2.50;;;24.60;97.00;;;;;;5053937;28;20477;-58
2023/05/06 11:43:11;;;;;;;4.83;2.40;;;;;;;;;;5054178;28;20503;-60
2023/05/06 11:45:47;;;;;;;4.00;2.47;;;25.60;93.20;;;;;;5054251;28;21047;-61
2023/05/06 11:48:14;;;;;;;2.93;2.30;;;26.10;90.00;;;;;;5054372;28;20465;-60
2023/05/06 11:50:46;;;;;;;3.47;2.50;;;;;;;;;;5053837;28;20971;-60
2023/05/06 11:53:14;;;;;;;3.53;2.37;;;;;;;;;;5053593;28;20516;-62
2023/05/06 11:55:42;;;;;;;3.40;2.53;;;;;;;;;;5053449;28;20495;-60
2023/05/06 11:58:13;;;;;;;3.30;2.43;;;;;;;;;;5053286;28;20473;-63
2023/05/06 12:00:49;;;;;;;3.20;2.40;;;;;;;;;;5053378;28;20489;-61
2023/05/06 12:03:16;;;;;;;4.00;2.17;;;26.60;84.30;;;;;;5053182;28;20544;-62
2023/05/06 12:05:43;;;;;;;3.30;2.53;;;26.30;85.20;;;;;;5052979;28;20453;-61
2023/05/06 12:08:11;;;;;;;3.23;2.50;;;26.30;87.40;;;;;;5053351;28;20454;-61
2023/05/06 12:10:39;;;;;;;2.77;2.40;;;26.40;86.40;;;;;;5053242;28;21101;-60
2023/05/06 12:13:07;;;;;;;4.53;2.63;;;26.60;86.30;;;;;;5053156;28;20960;-61
2023/05/06 12:15:38;;;;;;;3.70;2.77;;;26.60;84.00;;;;;;5053073;28;20449;-61
2023/05/06 12:18:07;;;;;;;3.40;2.60;;;26.60;83.40;;;;;;5052887;28;20465;-59
2023/05/06 12:20:35;;;;;;;3.93;2.60;;;26.00;84.00;;;;;;5052946;28;20799;-59
2023/05/06 12:23:09;;;;;;;4.33;2.50;;;26.00;87.70;;;;;;5051449;28;20449;-60
2023/05/06 12:25:36;;;;;;;3.13;2.40;;;26.20;89.70;;;;;;5052920;28;20880;-59
2023/05/06 12:28:14;;;;;;;3.40;2.50;;;26.30;86.20;;;;;;5052750;28;20454;-57
2023/05/06 12:30:41;;;;;;;3.37;2.40;;;26.30;85.50;;;;;;5052858;28;20489;-59
2023/05/06 12:33:11;;;;;;;4.30;2.30;;;26.50;83.40;;;;;;5052700;28;20450;-58
2023/05/06 12:35:39;;;;;;;4.23;2.70;;;26.80;86.10;;;;;;5052866;28;20476;-57
2023/05/06 12:38:10;;;;;;;3.03;2.40;;;26.90;87.60;;;;;;5052987;28;20461;-56
2023/05/06 12:40:37;;;;;;;3.20;2.40;;;27.20;84.70;;;;;;5035040;28;20884;-59
2023/05/06 12:43:05;;;;;;;4.00;2.20;;;27.50;85.20;;;;;;5052870;28;20453;-59
2023/05/06 12:45:33;;;;;;;3.20;2.50;;;27.70;80.90;;;;;;5035189;28;20481;-60
2023/05/06 12:48:01;;;;;;;3.50;2.50;;;27.80;82.40;;;;;;5052287;28;20457;-59
2023/05/06 12:50:34;;;;;;;2.53;2.00;;;27.60;81.30;;;;;;5052434;28;20544;-59
2023/05/06 12:53:01;;;;;;;2.70;2.17;;;27.80;81.20;;;;;;5052251;28;20461;-60
2023/05/06 12:55:30;;;;;;;2.30;2.10;;;28.10;80.00;;;;;;5052319;28;20541;-59
2023/05/06 12:57:58;;;;;;;2.77;2.17;;;28.10;77.80;;;;;;5051962;28;20518;-62